sensor_id;sensor_type;location;lat;lon;timestamp;P1;durP1;ratioP1;P2;durP2;ratioP2
71896;SDS011;59767;51.344;12.362;2023-07-29T00:00:06;4.55;;;1.30;;
71896;SDS011;59767;51.344;12.362;2023-07-29T00:03:11;3.95;;;1.50;;
71896;SDS011;59767;51.344;12.362;2023-07-29T00:06:15;2.67;;;1.50;;
71896;SDS011;59767;51.344;12.362;2023-07-29T00:09:20;3.58;;;1.40;;
71896;SDS011;59767;51.344;12.362;2023-07-29T00:12:24;2.97;;;1.30;;
71896;SDS011;59767;51.344;12.362;2023-07-29T00:15:28;5.93;;;1.42;;
71896;SDS011;59767;51.344;12.362;2023-07-29T00:18:32;4.78;;;1.50;;
71896;SDS011;59767;51.344;12.362;2023-07-29T00:21:36;2.50;;;1.30;;
71896;SDS011;59767;51.344;12.362;2023-07-29T00:24:41;2.17;;;1.30;;
71896;SDS011;59767;51.344;12.362;2023-07-29T00:27:45;2.25;;;1.20;;
71896;SDS011;59767;51.344;12.362;2023-07-29T00:30:49;5.28;;;1.30;;
71896;SDS011;59767;51.344;12.362;2023-07-29T00:33:54;6.93;;;1.50;;
71896;SDS011;59767;51.344;12.362;2023-07-29T00:36:59;3.72;;;1.17;;
71896;SDS011;59767;51.344;12.362;2023-07-29T00:40:04;2.72;;;1.23;;
71896;SDS011;59767;51.344;12.362;2023-07-29T00:43:25;2.75;;;1.00;;
71896;SDS011;59767;51.344;12.362;2023-07-29T00:46:29;5.32;;;1.35;;
71896;SDS011;59767;51.344;12.362;2023-07-29T00:49:38;6.05;;;1.33;;
71896;SDS011;59767;51.344;12.362;2023-07-29T00:52:42;5.30;;;1.30;;
71896;SDS011;59767;51.344;12.362;2023-07-29T00:55:47;3.33;;;1.15;;
71896;SDS011;59767;51.344;12.362;2023-07-29T00:58:51;8.18;;;1.38;;
71896;SDS011;59767;51.344;12.362;2023-07-29T01:02:02;3.10;;;1.20;;
71896;SDS011;59767;51.344;12.362;2023-07-29T01:05:06;2.50;;;1.33;;
71896;SDS011;59767;51.344;12.362;2023-07-29T01:11:52;1.50;;;1.20;;
71896;SDS011;59767;51.344;12.362;2023-07-29T01:15:13;2.05;;;1.27;;
71896;SDS011;59767;51.344;12.362;2023-07-29T01:18:25;1.60;;;1.30;;
71896;SDS011;59767;51.344;12.362;2023-07-29T01:21:33;3.40;;;1.45;;
71896;SDS011;59767;51.344;12.362;2023-07-29T01:24:39;2.33;;;1.20;;
71896;SDS011;59767;51.344;12.362;2023-07-29T01:27:44;3.33;;;1.42;;
71896;SDS011;59767;51.344;12.362;2023-07-29T01:30:51;2.55;;;1.20;;
71896;SDS011;59767;51.344;12.362;2023-07-29T01:34:06;1.63;;;1.15;;
71896;SDS011;59767;51.344;12.362;2023-07-29T01:37:18;2.90;;;1.30;;
71896;SDS011;59767;51.344;12.362;2023-07-29T01:40:26;3.63;;;1.30;;
71896;SDS011;59767;51.344;12.362;2023-07-29T01:43:32;2.13;;;1.30;;
71896;SDS011;59767;51.344;12.362;2023-07-29T01:46:36;2.42;;;1.35;;
71896;SDS011;59767;51.344;12.362;2023-07-29T01:49:41;4.45;;;1.70;;
71896;SDS011;59767;51.344;12.362;2023-07-29T01:52:45;2.67;;;1.30;;
71896;SDS011;59767;51.344;12.362;2023-07-29T01:55:50;3.97;;;1.40;;
71896;SDS011;59767;51.344;12.362;2023-07-29T01:58:54;2.40;;;1.20;;
71896;SDS011;59767;51.344;12.362;2023-07-29T02:01:58;3.65;;;1.50;;
71896;SDS011;59767;51.344;12.362;2023-07-29T02:05:02;3.75;;;1.30;;
71896;SDS011;59767;51.344;12.362;2023-07-29T02:08:07;2.38;;;1.33;;
71896;SDS011;59767;51.344;12.362;2023-07-29T02:11:11;4.47;;;1.40;;
71896;SDS011;59767;51.344;12.362;2023-07-29T02:14:15;3.10;;;1.15;;
71896;SDS011;59767;51.344;12.362;2023-07-29T02:17:19;3.33;;;1.30;;
71896;SDS011;59767;51.344;12.362;2023-07-29T02:20:23;2.85;;;1.30;;
71896;SDS011;59767;51.344;12.362;2023-07-29T02:23:27;2.10;;;1.27;;
71896;SDS011;59767;51.344;12.362;2023-07-29T02:26:31;3.53;;;1.15;;
71896;SDS011;59767;51.344;12.362;2023-07-29T02:29:35;2.90;;;1.40;;
71896;SDS011;59767;51.344;12.362;2023-07-29T02:32:40;2.35;;;1.40;;
71896;SDS011;59767;51.344;12.362;2023-07-29T02:35:44;2.47;;;1.30;;
71896;SDS011;59767;51.344;12.362;2023-07-29T02:38:48;2.22;;;1.48;;
71896;SDS011;59767;51.344;12.362;2023-07-29T02:41:52;2.15;;;1.30;;
71896;SDS011;59767;51.344;12.362;2023-07-29T02:44:56;3.97;;;1.30;;
71896;SDS011;59767;51.344;12.362;2023-07-29T02:48:00;3.03;;;1.25;;
71896;SDS011;59767;51.344;12.362;2023-07-29T02:51:05;3.40;;;1.45;;
71896;SDS011;59767;51.344;12.362;2023-07-29T02:54:09;1.98;;;1.40;;
71896;SDS011;59767;51.344;12.362;2023-07-29T02:57:13;5.05;;;1.50;;
71896;SDS011;59767;51.344;12.362;2023-07-29T03:00:18;2.28;;;1.50;;
71896;SDS011;59767;51.344;12.362;2023-07-29T03:03:22;2.38;;;1.58;;
71896;SDS011;59767;51.344;12.362;2023-07-29T03:06:26;7.57;;;1.50;;
71896;SDS011;59767;51.344;12.362;2023-07-29T03:09:30;2.20;;;1.42;;
71896;SDS011;59767;51.344;12.362;2023-07-29T03:12:34;2.45;;;1.30;;
71896;SDS011;59767;51.344;12.362;2023-07-29T03:15:38;3.28;;;1.30;;
71896;SDS011;59767;51.344;12.362;2023-07-29T03:18:43;3.00;;;1.50;;
71896;SDS011;59767;51.344;12.362;2023-07-29T03:21:49;2.30;;;1.30;;
71896;SDS011;59767;51.344;12.362;2023-07-29T03:24:53;2.85;;;1.40;;
71896;SDS011;59767;51.344;12.362;2023-07-29T03:27:57;2.42;;;1.30;;
71896;SDS011;59767;51.344;12.362;2023-07-29T03:31:01;3.95;;;1.40;;
71896;SDS011;59767;51.344;12.362;2023-07-29T03:34:06;1.30;;;1.20;;
71896;SDS011;59767;51.344;12.362;2023-07-29T03:37:11;2.90;;;1.70;;
71896;SDS011;59767;51.344;12.362;2023-07-29T03:40:15;4.32;;;1.58;;
71896;SDS011;59767;51.344;12.362;2023-07-29T03:43:19;1.45;;;1.20;;
71896;SDS011;59767;51.344;12.362;2023-07-29T03:46:24;2.80;;;1.60;;
71896;SDS011;59767;51.344;12.362;2023-07-29T03:49:28;2.63;;;1.50;;
71896;SDS011;59767;51.344;12.362;2023-07-29T03:52:32;1.77;;;1.58;;
71896;SDS011;59767;51.344;12.362;2023-07-29T03:55:37;4.18;;;1.60;;
71896;SDS011;59767;51.344;12.362;2023-07-29T03:58:41;3.08;;;1.55;;
71896;SDS011;59767;51.344;12.362;2023-07-29T04:01:45;3.38;;;1.65;;
71896;SDS011;59767;51.344;12.362;2023-07-29T04:04:49;3.00;;;1.60;;
71896;SDS011;59767;51.344;12.362;2023-07-29T04:07:53;4.28;;;1.50;;
71896;SDS011;59767;51.344;12.362;2023-07-29T04:10:57;3.22;;;1.60;;
71896;SDS011;59767;51.344;12.362;2023-07-29T04:14:02;2.22;;;1.60;;
71896;SDS011;59767;51.344;12.362;2023-07-29T04:17:06;3.30;;;1.70;;
71896;SDS011;59767;51.344;12.362;2023-07-29T04:20:11;4.20;;;1.50;;
71896;SDS011;59767;51.344;12.362;2023-07-29T04:23:15;2.72;;;1.60;;
71896;SDS011;59767;51.344;12.362;2023-07-29T04:26:19;3.67;;;1.27;;
71896;SDS011;59767;51.344;12.362;2023-07-29T04:29:24;4.20;;;1.40;;
71896;SDS011;59767;51.344;12.362;2023-07-29T04:32:28;2.33;;;1.50;;
71896;SDS011;59767;51.344;12.362;2023-07-29T04:35:33;2.70;;;1.42;;
71896;SDS011;59767;51.344;12.362;2023-07-29T04:38:37;3.03;;;1.42;;
71896;SDS011;59767;51.344;12.362;2023-07-29T04:41:42;3.05;;;1.60;;
71896;SDS011;59767;51.344;12.362;2023-07-29T04:44:47;5.90;;;1.48;;
71896;SDS011;59767;51.344;12.362;2023-07-29T04:47:51;3.17;;;1.58;;
71896;SDS011;59767;51.344;12.362;2023-07-29T04:50:55;2.25;;;1.30;;
71896;SDS011;59767;51.344;12.362;2023-07-29T04:53:59;3.40;;;1.30;;
71896;SDS011;59767;51.344;12.362;2023-07-29T04:57:04;2.17;;;1.35;;
71896;SDS011;59767;51.344;12.362;2023-07-29T05:00:08;3.97;;;1.38;;
71896;SDS011;59767;51.344;12.362;2023-07-29T05:03:13;2.00;;;1.45;;
71896;SDS011;59767;51.344;12.362;2023-07-29T05:06:17;2.28;;;1.30;;
71896;SDS011;59767;51.344;12.362;2023-07-29T05:09:21;4.25;;;1.38;;
71896;SDS011;59767;51.344;12.362;2023-07-29T05:12:26;2.35;;;1.30;;
71896;SDS011;59767;51.344;12.362;2023-07-29T05:15:30;4.18;;;1.50;;
71896;SDS011;59767;51.344;12.362;2023-07-29T05:18:34;3.22;;;1.40;;
71896;SDS011;59767;51.344;12.362;2023-07-29T05:21:38;3.67;;;1.20;;
71896;SDS011;59767;51.344;12.362;2023-07-29T05:24:43;6.07;;;1.50;;
71896;SDS011;59767;51.344;12.362;2023-07-29T05:27:48;1.73;;;1.20;;
71896;SDS011;59767;51.344;12.362;2023-07-29T05:30:52;1.20;;;1.10;;
71896;SDS011;59767;51.344;12.362;2023-07-29T05:33:56;2.63;;;1.35;;
71896;SDS011;59767;51.344;12.362;2023-07-29T05:37:00;2.70;;;1.00;;
71896;SDS011;59767;51.344;12.362;2023-07-29T05:40:04;5.53;;;1.20;;
71896;SDS011;59767;51.344;12.362;2023-07-29T05:43:10;2.13;;;1.30;;
71896;SDS011;59767;51.344;12.362;2023-07-29T05:46:15;2.78;;;1.25;;
71896;SDS011;59767;51.344;12.362;2023-07-29T05:49:19;2.45;;;1.40;;
71896;SDS011;59767;51.344;12.362;2023-07-29T05:52:23;3.58;;;1.20;;
71896;SDS011;59767;51.344;12.362;2023-07-29T05:55:27;1.83;;;1.20;;
71896;SDS011;59767;51.344;12.362;2023-07-29T05:58:31;2.50;;;1.20;;
71896;SDS011;59767;51.344;12.362;2023-07-29T06:01:35;1.77;;;1.30;;
71896;SDS011;59767;51.344;12.362;2023-07-29T06:04:40;2.83;;;1.33;;
71896;SDS011;59767;51.344;12.362;2023-07-29T06:07:44;2.00;;;1.20;;
71896;SDS011;59767;51.344;12.362;2023-07-29T06:10:49;1.90;;;1.13;;
71896;SDS011;59767;51.344;12.362;2023-07-29T06:13:53;2.65;;;1.30;;
71896;SDS011;59767;51.344;12.362;2023-07-29T06:16:57;2.10;;;1.30;;
71896;SDS011;59767;51.344;12.362;2023-07-29T06:20:01;3.00;;;1.50;;
71896;SDS011;59767;51.344;12.362;2023-07-29T06:23:07;2.50;;;1.30;;
71896;SDS011;59767;51.344;12.362;2023-07-29T06:26:12;4.22;;;1.30;;
71896;SDS011;59767;51.344;12.362;2023-07-29T06:29:16;2.10;;;1.20;;
71896;SDS011;59767;51.344;12.362;2023-07-29T06:32:20;4.35;;;1.42;;
71896;SDS011;59767;51.344;12.362;2023-07-29T06:35:24;2.80;;;1.30;;
71896;SDS011;59767;51.344;12.362;2023-07-29T06:38:28;4.10;;;1.30;;
71896;SDS011;59767;51.344;12.362;2023-07-29T06:41:32;1.35;;;1.20;;
71896;SDS011;59767;51.344;12.362;2023-07-29T06:44:36;3.05;;;1.50;;
71896;SDS011;59767;51.344;12.362;2023-07-29T06:47:41;3.00;;;1.40;;
71896;SDS011;59767;51.344;12.362;2023-07-29T06:50:44;3.05;;;1.30;;
71896;SDS011;59767;51.344;12.362;2023-07-29T06:53:48;3.88;;;1.38;;
71896;SDS011;59767;51.344;12.362;2023-07-29T06:56:52;5.50;;;1.38;;
71896;SDS011;59767;51.344;12.362;2023-07-29T06:59:57;4.75;;;1.77;;
71896;SDS011;59767;51.344;12.362;2023-07-29T07:03:01;3.35;;;1.50;;
71896;SDS011;59767;51.344;12.362;2023-07-29T07:06:05;3.17;;;1.50;;
71896;SDS011;59767;51.344;12.362;2023-07-29T07:09:09;4.13;;;1.50;;
71896;SDS011;59767;51.344;12.362;2023-07-29T07:12:13;4.13;;;1.30;;
71896;SDS011;59767;51.344;12.362;2023-07-29T07:15:17;4.72;;;1.42;;
71896;SDS011;59767;51.344;12.362;2023-07-29T07:18:21;3.17;;;1.20;;
71896;SDS011;59767;51.344;12.362;2023-07-29T07:21:28;2.05;;;1.20;;
71896;SDS011;59767;51.344;12.362;2023-07-29T07:24:32;3.17;;;1.45;;
71896;SDS011;59767;51.344;12.362;2023-07-29T07:27:36;3.97;;;1.20;;
71896;SDS011;59767;51.344;12.362;2023-07-29T07:30:41;4.05;;;1.30;;
71896;SDS011;59767;51.344;12.362;2023-07-29T07:33:45;3.03;;;1.48;;
71896;SDS011;59767;51.344;12.362;2023-07-29T07:36:49;5.05;;;1.27;;
71896;SDS011;59767;51.344;12.362;2023-07-29T07:39:53;3.15;;;1.45;;
71896;SDS011;59767;51.344;12.362;2023-07-29T07:42:57;3.20;;;1.50;;
71896;SDS011;59767;51.344;12.362;2023-07-29T07:46:03;2.17;;;1.30;;
71896;SDS011;59767;51.344;12.362;2023-07-29T07:49:09;1.48;;;1.10;;
71896;SDS011;59767;51.344;12.362;2023-07-29T07:52:12;2.17;;;1.38;;
71896;SDS011;59767;51.344;12.362;2023-07-29T07:55:16;3.80;;;1.42;;
71896;SDS011;59767;51.344;12.362;2023-07-29T07:58:21;3.80;;;1.38;;
71896;SDS011;59767;51.344;12.362;2023-07-29T08:01:25;7.07;;;1.60;;
71896;SDS011;59767;51.344;12.362;2023-07-29T08:04:29;11.30;;;1.75;;
71896;SDS011;59767;51.344;12.362;2023-07-29T08:07:33;8.52;;;1.50;;
71896;SDS011;59767;51.344;12.362;2023-07-29T08:10:38;12.88;;;1.83;;
71896;SDS011;59767;51.344;12.362;2023-07-29T08:13:42;10.65;;;1.60;;
71896;SDS011;59767;51.344;12.362;2023-07-29T08:16:46;11.98;;;1.63;;
71896;SDS011;59767;51.344;12.362;2023-07-29T08:19:50;13.45;;;1.80;;
71896;SDS011;59767;51.344;12.362;2023-07-29T08:22:54;8.98;;;1.48;;
71896;SDS011;59767;51.344;12.362;2023-07-29T08:25:59;6.93;;;1.50;;
71896;SDS011;59767;51.344;12.362;2023-07-29T08:29:05;3.08;;;1.35;;
71896;SDS011;59767;51.344;12.362;2023-07-29T08:32:10;4.55;;;1.63;;
71896;SDS011;59767;51.344;12.362;2023-07-29T08:35:14;4.80;;;1.30;;
71896;SDS011;59767;51.344;12.362;2023-07-29T08:38:18;5.80;;;1.40;;
71896;SDS011;59767;51.344;12.362;2023-07-29T08:41:29;3.28;;;1.20;;
71896;SDS011;59767;51.344;12.362;2023-07-29T08:44:42;6.60;;;1.40;;
71896;SDS011;59767;51.344;12.362;2023-07-29T08:47:47;5.55;;;1.30;;
71896;SDS011;59767;51.344;12.362;2023-07-29T08:50:54;7.25;;;1.38;;
71896;SDS011;59767;51.344;12.362;2023-07-29T08:53:59;5.40;;;1.30;;
71896;SDS011;59767;51.344;12.362;2023-07-29T08:57:03;4.25;;;1.20;;
71896;SDS011;59767;51.344;12.362;2023-07-29T09:00:08;2.60;;;1.40;;
71896;SDS011;59767;51.344;12.362;2023-07-29T09:03:14;2.83;;;1.33;;
71896;SDS011;59767;51.344;12.362;2023-07-29T09:06:18;3.38;;;1.10;;
71896;SDS011;59767;51.344;12.362;2023-07-29T09:09:25;3.17;;;1.27;;
71896;SDS011;59767;51.344;12.362;2023-07-29T09:12:29;7.32;;;1.40;;
71896;SDS011;59767;51.344;12.362;2023-07-29T09:15:34;2.50;;;1.20;;
71896;SDS011;59767;51.344;12.362;2023-07-29T09:18:39;3.90;;;1.10;;
71896;SDS011;59767;51.344;12.362;2023-07-29T09:21:45;5.40;;;1.38;;
71896;SDS011;59767;51.344;12.362;2023-07-29T09:24:50;5.28;;;1.30;;
71896;SDS011;59767;51.344;12.362;2023-07-29T09:28:02;4.78;;;1.20;;
71896;SDS011;59767;51.344;12.362;2023-07-29T09:31:20;7.82;;;1.30;;
71896;SDS011;59767;51.344;12.362;2023-07-29T09:34:25;3.55;;;1.10;;
71896;SDS011;59767;51.344;12.362;2023-07-29T09:37:31;1.60;;;0.85;;
71896;SDS011;59767;51.344;12.362;2023-07-29T09:40:36;2.45;;;1.13;;
71896;SDS011;59767;51.344;12.362;2023-07-29T09:43:41;4.65;;;1.13;;
71896;SDS011;59767;51.344;12.362;2023-07-29T09:46:46;4.07;;;1.20;;
71896;SDS011;59767;51.344;12.362;2023-07-29T09:49:51;3.85;;;1.00;;
71896;SDS011;59767;51.344;12.362;2023-07-29T09:52:56;3.50;;;1.10;;
71896;SDS011;59767;51.344;12.362;2023-07-29T09:56:04;4.22;;;1.05;;
71896;SDS011;59767;51.344;12.362;2023-07-29T09:59:09;4.70;;;1.17;;
71896;SDS011;59767;51.344;12.362;2023-07-29T10:02:15;8.32;;;1.10;;
71896;SDS011;59767;51.344;12.362;2023-07-29T10:05:21;3.58;;;0.98;;
71896;SDS011;59767;51.344;12.362;2023-07-29T10:08:27;7.00;;;1.30;;
71896;SDS011;59767;51.344;12.362;2023-07-29T10:11:33;3.00;;;1.10;;
71896;SDS011;59767;51.344;12.362;2023-07-29T10:14:38;6.50;;;1.27;;
71896;SDS011;59767;51.344;12.362;2023-07-29T10:17:43;5.38;;;1.20;;
71896;SDS011;59767;51.344;12.362;2023-07-29T10:20:52;4.97;;;1.10;;
71896;SDS011;59767;51.344;12.362;2023-07-29T10:23:58;8.27;;;1.23;;
71896;SDS011;59767;51.344;12.362;2023-07-29T10:27:05;13.23;;;1.70;;
71896;SDS011;59767;51.344;12.362;2023-07-29T10:30:11;5.18;;;1.10;;
71896;SDS011;59767;51.344;12.362;2023-07-29T10:33:17;7.72;;;1.20;;
71896;SDS011;59767;51.344;12.362;2023-07-29T10:36:21;2.95;;;0.93;;
71896;SDS011;59767;51.344;12.362;2023-07-29T10:39:26;5.15;;;1.10;;
71896;SDS011;59767;51.344;12.362;2023-07-29T10:42:30;10.75;;;1.38;;
71896;SDS011;59767;51.344;12.362;2023-07-29T10:45:38;3.22;;;1.05;;
71896;SDS011;59767;51.344;12.362;2023-07-29T10:48:44;3.83;;;0.95;;
71896;SDS011;59767;51.344;12.362;2023-07-29T10:51:56;7.43;;;1.10;;
71896;SDS011;59767;51.344;12.362;2023-07-29T10:55:01;4.05;;;0.90;;
71896;SDS011;59767;51.344;12.362;2023-07-29T10:58:07;3.92;;;1.10;;
71896;SDS011;59767;51.344;12.362;2023-07-29T11:01:13;7.40;;;1.40;;
71896;SDS011;59767;51.344;12.362;2023-07-29T11:04:31;4.32;;;1.00;;
71896;SDS011;59767;51.344;12.362;2023-07-29T11:07:45;5.70;;;1.02;;
71896;SDS011;59767;51.344;12.362;2023-07-29T11:10:57;4.72;;;1.20;;
71896;SDS011;59767;51.344;12.362;2023-07-29T11:14:01;2.15;;;1.17;;
71896;SDS011;59767;51.344;12.362;2023-07-29T11:17:06;3.10;;;1.15;;
71896;SDS011;59767;51.344;12.362;2023-07-29T11:20:12;3.22;;;1.38;;
71896;SDS011;59767;51.344;12.362;2023-07-29T11:23:17;9.07;;;1.40;;
71896;SDS011;59767;51.344;12.362;2023-07-29T11:26:22;7.07;;;1.40;;
71896;SDS011;59767;51.344;12.362;2023-07-29T11:29:26;4.57;;;1.23;;
71896;SDS011;59767;51.344;12.362;2023-07-29T11:32:30;4.18;;;1.42;;
71896;SDS011;59767;51.344;12.362;2023-07-29T11:35:35;2.60;;;1.20;;
71896;SDS011;59767;51.344;12.362;2023-07-29T11:38:40;5.47;;;1.40;;
71896;SDS011;59767;51.344;12.362;2023-07-29T11:41:45;4.63;;;1.30;;
71896;SDS011;59767;51.344;12.362;2023-07-29T11:44:50;6.65;;;1.50;;
71896;SDS011;59767;51.344;12.362;2023-07-29T11:47:54;5.07;;;1.33;;
71896;SDS011;59767;51.344;12.362;2023-07-29T11:50:58;6.25;;;1.30;;
71896;SDS011;59767;51.344;12.362;2023-07-29T11:54:02;3.47;;;1.15;;
71896;SDS011;59767;51.344;12.362;2023-07-29T11:57:07;3.67;;;1.23;;
71896;SDS011;59767;51.344;12.362;2023-07-29T12:00:13;3.55;;;1.45;;
71896;SDS011;59767;51.344;12.362;2023-07-29T12:03:18;2.83;;;1.30;;
71896;SDS011;59767;51.344;12.362;2023-07-29T12:06:23;3.20;;;1.40;;
71896;SDS011;59767;51.344;12.362;2023-07-29T12:09:28;4.20;;;1.33;;
71896;SDS011;59767;51.344;12.362;2023-07-29T12:12:33;2.45;;;1.10;;
71896;SDS011;59767;51.344;12.362;2023-07-29T12:15:38;3.60;;;1.10;;
71896;SDS011;59767;51.344;12.362;2023-07-29T12:18:43;2.85;;;1.40;;
71896;SDS011;59767;51.344;12.362;2023-07-29T12:21:48;4.30;;;1.27;;
71896;SDS011;59767;51.344;12.362;2023-07-29T12:24:53;4.00;;;1.33;;
71896;SDS011;59767;51.344;12.362;2023-07-29T12:28:05;3.90;;;1.40;;
71896;SDS011;59767;51.344;12.362;2023-07-29T12:31:10;2.63;;;1.35;;
71896;SDS011;59767;51.344;12.362;2023-07-29T12:34:18;4.25;;;1.30;;
71896;SDS011;59767;51.344;12.362;2023-07-29T12:37:30;2.95;;;1.30;;
71896;SDS011;59767;51.344;12.362;2023-07-29T12:40:38;4.65;;;1.30;;
71896;SDS011;59767;51.344;12.362;2023-07-29T12:43:43;3.13;;;1.50;;
71896;SDS011;59767;51.344;12.362;2023-07-29T12:46:48;2.88;;;1.23;;
71896;SDS011;59767;51.344;12.362;2023-07-29T12:49:52;4.40;;;1.50;;
71896;SDS011;59767;51.344;12.362;2023-07-29T12:52:57;2.65;;;1.27;;
71896;SDS011;59767;51.344;12.362;2023-07-29T12:56:01;1.20;;;1.10;;
71896;SDS011;59767;51.344;12.362;2023-07-29T12:59:05;2.95;;;1.30;;
71896;SDS011;59767;51.344;12.362;2023-07-29T13:02:10;2.05;;;1.33;;
71896;SDS011;59767;51.344;12.362;2023-07-29T13:05:14;2.22;;;1.33;;
71896;SDS011;59767;51.344;12.362;2023-07-29T13:08:18;2.58;;;1.20;;
71896;SDS011;59767;51.344;12.362;2023-07-29T13:11:24;2.65;;;1.30;;
71896;SDS011;59767;51.344;12.362;2023-07-29T13:14:29;3.47;;;1.20;;
71896;SDS011;59767;51.344;12.362;2023-07-29T13:17:34;2.45;;;1.20;;
71896;SDS011;59767;51.344;12.362;2023-07-29T13:20:38;2.85;;;1.30;;
71896;SDS011;59767;51.344;12.362;2023-07-29T13:23:43;2.40;;;1.30;;
71896;SDS011;59767;51.344;12.362;2023-07-29T13:26:47;2.67;;;1.25;;
71896;SDS011;59767;51.344;12.362;2023-07-29T13:29:50;4.15;;;1.30;;
71896;SDS011;59767;51.344;12.362;2023-07-29T13:32:55;2.15;;;1.23;;
71896;SDS011;59767;51.344;12.362;2023-07-29T13:36:00;2.65;;;1.40;;
71896;SDS011;59767;51.344;12.362;2023-07-29T13:39:06;3.63;;;1.35;;
71896;SDS011;59767;51.344;12.362;2023-07-29T13:42:10;5.57;;;1.50;;
71896;SDS011;59767;51.344;12.362;2023-07-29T13:45:15;3.03;;;1.20;;
71896;SDS011;59767;51.344;12.362;2023-07-29T13:48:19;1.75;;;1.20;;
71896;SDS011;59767;51.344;12.362;2023-07-29T13:51:23;1.90;;;1.17;;
71896;SDS011;59767;51.344;12.362;2023-07-29T13:54:28;2.45;;;1.25;;
71896;SDS011;59767;51.344;12.362;2023-07-29T13:57:33;2.70;;;1.40;;
71896;SDS011;59767;51.344;12.362;2023-07-29T14:00:37;3.05;;;1.40;;
71896;SDS011;59767;51.344;12.362;2023-07-29T14:03:42;2.67;;;1.60;;
71896;SDS011;59767;51.344;12.362;2023-07-29T14:06:46;2.95;;;1.48;;
71896;SDS011;59767;51.344;12.362;2023-07-29T14:09:57;2.50;;;1.30;;
71896;SDS011;59767;51.344;12.362;2023-07-29T14:13:04;2.47;;;1.40;;
71896;SDS011;59767;51.344;12.362;2023-07-29T14:16:09;4.40;;;1.42;;
71896;SDS011;59767;51.344;12.362;2023-07-29T14:19:13;3.83;;;1.40;;
71896;SDS011;59767;51.344;12.362;2023-07-29T14:22:17;3.70;;;1.60;;
71896;SDS011;59767;51.344;12.362;2023-07-29T14:25:21;2.65;;;1.63;;
71896;SDS011;59767;51.344;12.362;2023-07-29T14:28:26;3.25;;;1.50;;
71896;SDS011;59767;51.344;12.362;2023-07-29T14:31:31;2.00;;;1.30;;
71896;SDS011;59767;51.344;12.362;2023-07-29T14:34:35;6.88;;;1.70;;
71896;SDS011;59767;51.344;12.362;2023-07-29T14:37:39;6.05;;;1.90;;
71896;SDS011;59767;51.344;12.362;2023-07-29T14:40:44;8.35;;;1.60;;
71896;SDS011;59767;51.344;12.362;2023-07-29T14:43:48;3.58;;;1.67;;
71896;SDS011;59767;51.344;12.362;2023-07-29T14:46:53;4.03;;;1.60;;
71896;SDS011;59767;51.344;12.362;2023-07-29T14:49:57;6.45;;;1.80;;
71896;SDS011;59767;51.344;12.362;2023-07-29T14:53:01;3.97;;;1.63;;
71896;SDS011;59767;51.344;12.362;2023-07-29T14:56:05;5.35;;;1.80;;
71896;SDS011;59767;51.344;12.362;2023-07-29T14:59:09;5.03;;;1.70;;
71896;SDS011;59767;51.344;12.362;2023-07-29T15:02:13;5.50;;;1.77;;
71896;SDS011;59767;51.344;12.362;2023-07-29T15:05:17;4.32;;;1.60;;
71896;SDS011;59767;51.344;12.362;2023-07-29T15:08:22;3.40;;;1.75;;
71896;SDS011;59767;51.344;12.362;2023-07-29T15:11:28;3.00;;;1.45;;
71896;SDS011;59767;51.344;12.362;2023-07-29T15:14:32;3.95;;;1.80;;
71896;SDS011;59767;51.344;12.362;2023-07-29T15:17:37;6.00;;;1.95;;
71896;SDS011;59767;51.344;12.362;2023-07-29T15:20:41;5.20;;;1.88;;
71896;SDS011;59767;51.344;12.362;2023-07-29T15:23:45;4.43;;;1.88;;
71896;SDS011;59767;51.344;12.362;2023-07-29T15:26:50;3.25;;;1.70;;
71896;SDS011;59767;51.344;12.362;2023-07-29T15:29:54;6.57;;;2.00;;
71896;SDS011;59767;51.344;12.362;2023-07-29T15:32:59;6.43;;;2.00;;
71896;SDS011;59767;51.344;12.362;2023-07-29T15:36:04;5.85;;;1.70;;
71896;SDS011;59767;51.344;12.362;2023-07-29T15:39:08;4.60;;;2.00;;
71896;SDS011;59767;51.344;12.362;2023-07-29T15:42:12;5.18;;;1.98;;
71896;SDS011;59767;51.344;12.362;2023-07-29T15:45:16;5.45;;;2.20;;
71896;SDS011;59767;51.344;12.362;2023-07-29T15:48:21;7.93;;;2.10;;
71896;SDS011;59767;51.344;12.362;2023-07-29T15:51:25;8.18;;;2.00;;
71896;SDS011;59767;51.344;12.362;2023-07-29T15:54:30;10.57;;;2.00;;
71896;SDS011;59767;51.344;12.362;2023-07-29T15:57:34;6.55;;;2.20;;
71896;SDS011;59767;51.344;12.362;2023-07-29T16:00:39;5.32;;;2.30;;
71896;SDS011;59767;51.344;12.362;2023-07-29T16:03:43;6.35;;;2.03;;
71896;SDS011;59767;51.344;12.362;2023-07-29T16:06:47;7.15;;;2.13;;
71896;SDS011;59767;51.344;12.362;2023-07-29T16:09:51;6.18;;;2.00;;
71896;SDS011;59767;51.344;12.362;2023-07-29T16:12:55;6.05;;;2.15;;
71896;SDS011;59767;51.344;12.362;2023-07-29T16:15:59;4.97;;;1.88;;
71896;SDS011;59767;51.344;12.362;2023-07-29T16:19:04;6.57;;;2.08;;
71896;SDS011;59767;51.344;12.362;2023-07-29T16:22:09;5.65;;;1.83;;
71896;SDS011;59767;51.344;12.362;2023-07-29T16:25:13;4.03;;;1.90;;
71896;SDS011;59767;51.344;12.362;2023-07-29T16:28:17;6.53;;;2.10;;
71896;SDS011;59767;51.344;12.362;2023-07-29T16:31:21;4.82;;;2.30;;
71896;SDS011;59767;51.344;12.362;2023-07-29T16:34:26;7.63;;;2.30;;
71896;SDS011;59767;51.344;12.362;2023-07-29T16:37:30;7.65;;;2.10;;
71896;SDS011;59767;51.344;12.362;2023-07-29T16:40:35;8.55;;;2.08;;
71896;SDS011;59767;51.344;12.362;2023-07-29T16:43:39;5.60;;;1.77;;
71896;SDS011;59767;51.344;12.362;2023-07-29T16:46:44;6.18;;;2.30;;
71896;SDS011;59767;51.344;12.362;2023-07-29T16:49:48;6.85;;;2.10;;
71896;SDS011;59767;51.344;12.362;2023-07-29T16:52:52;6.47;;;2.40;;
71896;SDS011;59767;51.344;12.362;2023-07-29T16:55:57;9.20;;;3.15;;
71896;SDS011;59767;51.344;12.362;2023-07-29T16:59:01;7.90;;;2.70;;
71896;SDS011;59767;51.344;12.362;2023-07-29T17:02:05;11.23;;;3.42;;
71896;SDS011;59767;51.344;12.362;2023-07-29T17:05:11;6.82;;;2.80;;
71896;SDS011;59767;51.344;12.362;2023-07-29T17:08:15;11.27;;;3.88;;
71896;SDS011;59767;51.344;12.362;2023-07-29T17:11:19;7.28;;;2.60;;
71896;SDS011;59767;51.344;12.362;2023-07-29T17:14:23;8.40;;;3.40;;
71896;SDS011;59767;51.344;12.362;2023-07-29T17:17:28;6.40;;;2.78;;
71896;SDS011;59767;51.344;12.362;2023-07-29T17:20:32;9.40;;;2.80;;
71896;SDS011;59767;51.344;12.362;2023-07-29T17:23:37;9.23;;;2.85;;
71896;SDS011;59767;51.344;12.362;2023-07-29T17:26:41;6.18;;;2.50;;
71896;SDS011;59767;51.344;12.362;2023-07-29T17:29:45;5.72;;;2.15;;
71896;SDS011;59767;51.344;12.362;2023-07-29T17:32:49;10.27;;;2.50;;
71896;SDS011;59767;51.344;12.362;2023-07-29T17:35:53;7.43;;;2.35;;
71896;SDS011;59767;51.344;12.362;2023-07-29T17:38:59;8.25;;;2.22;;
71896;SDS011;59767;51.344;12.362;2023-07-29T17:42:04;4.88;;;2.20;;
71896;SDS011;59767;51.344;12.362;2023-07-29T17:45:10;10.68;;;2.28;;
71896;SDS011;59767;51.344;12.362;2023-07-29T17:48:14;6.40;;;2.30;;
71896;SDS011;59767;51.344;12.362;2023-07-29T17:51:18;5.40;;;2.10;;
71896;SDS011;59767;51.344;12.362;2023-07-29T17:54:22;10.65;;;2.13;;
71896;SDS011;59767;51.344;12.362;2023-07-29T17:57:27;13.13;;;2.20;;
71896;SDS011;59767;51.344;12.362;2023-07-29T18:00:31;5.22;;;2.28;;
71896;SDS011;59767;51.344;12.362;2023-07-29T18:03:36;8.20;;;1.98;;
71896;SDS011;59767;51.344;12.362;2023-07-29T18:06:40;5.30;;;2.00;;
71896;SDS011;59767;51.344;12.362;2023-07-29T18:09:45;7.88;;;2.10;;
71896;SDS011;59767;51.344;12.362;2023-07-29T18:12:49;6.18;;;2.10;;
71896;SDS011;59767;51.344;12.362;2023-07-29T18:15:53;6.97;;;2.22;;
71896;SDS011;59767;51.344;12.362;2023-07-29T18:18:57;6.55;;;2.15;;